Time;durP1;ratioP1;P1;durP2;ratioP2;P2;SDS_P1;SDS_P2;PMS_P1;PMS_P2;Temp;Humidity;BMP_temperature;BMP_pressure;BME280_temperature;BME280_humidity;BME280_pressure;Samples;Min_cycle;Max_cycle;Signal;HPM_P1;HPM_P2
2021/10/31 00:01:05;;;;;;;10.32;8.20;;;11.40;99.90;;;;;;5049170;28;20029;-52
2021/10/31 00:03:32;;;;;;;9.25;7.47;;;11.40;99.90;;;;;;5048994;28;20025;-53
2021/10/31 00:05:58;;;;;;;9.65;7.10;;;11.50;99.90;;;;;;5048854;28;20609;-52
2021/10/31 00:08:23;;;;;;;9.65;8.43;;;11.50;99.90;;;;;;5031966;28;20029;-53
2021/10/31 00:10:49;;;;;;;9.35;8.35;;;11.50;99.90;;;;;;5049596;28;20760;-54
2021/10/31 00:13:15;;;;;;;10.15;8.77;;;11.50;99.90;;;;;;5049579;28;20025;-53
2021/10/31 00:15:41;;;;;;;12.48;9.30;;;11.50;99.90;;;;;;5049338;28;20095;-51
2021/10/31 00:18:07;;;;;;;12.55;9.13;;;11.50;99.90;;;;;;5049008;28;20029;-50
2021/10/31 00:20:32;;;;;;;10.32;8.65;;;11.50;99.90;;;;;;5049090;28;20032;-55
2021/10/31 00:22:58;;;;;;;10.93;8.25;;;11.50;99.90;;;;;;5048867;28;20021;-50
2021/10/31 00:25:24;;;;;;;11.88;8.95;;;11.50;99.90;;;;;;5045079;28;20037;-52
2021/10/31 00:27:49;;;;;;;10.73;8.27;;;11.50;99.90;;;;;;5048149;28;20074;-51
2021/10/31 00:30:15;;;;;;;11.65;8.82;;;11.50;99.90;;;;;;5048737;28;20100;-52
2021/10/31 00:32:41;;;;;;;10.55;8.02;;;11.50;99.90;;;;;;5048380;28;20033;-51
2021/10/31 00:35:07;;;;;;;14.43;9.23;;;11.50;99.90;;;;;;5047085;28;20029;-52
2021/10/31 00:37:33;;;;;;;12.88;8.95;;;11.50;99.90;;;;;;5048826;28;20512;-50
2021/10/31 00:39:59;;;;;;;11.23;8.35;;;11.50;99.90;;;;;;5056822;28;20103;-51
2021/10/31 00:42:24;;;;;;;12.00;8.98;;;11.50;99.90;;;;;;5053167;28;20121;-51
2021/10/31 00:44:50;;;;;;;12.55;8.88;;;11.50;99.90;;;;;;5048579;28;20166;-51
2021/10/31 00:47:16;;;;;;;11.93;9.32;;;11.50;99.90;;;;;;5048712;28;20033;-51
2021/10/31 00:49:42;;;;;;;11.82;9.55;;;11.50;99.90;;;;;;5048326;28;20519;-51
2021/10/31 00:52:10;;;;;;;10.52;8.32;;;11.60;99.90;;;;;;5048766;28;20025;-51
2021/10/31 00:54:35;;;;;;;11.65;9.70;;;11.60;99.90;;;;;;5048714;28;20032;-52
2021/10/31 00:57:01;;;;;;;12.38;9.32;;;11.60;99.90;;;;;;5048157;28;20377;-50
2021/10/31 00:59:27;;;;;;;12.48;9.38;;;11.60;99.90;;;;;;5047319;28;20385;-50
2021/10/31 01:01:53;;;;;;;15.32;10.75;;;11.60;99.90;;;;;;5029975;28;20036;-51
2021/10/31 01:04:23;;;;;;;13.25;10.30;;;11.60;99.90;;;;;;5038220;28;20037;-53
2021/10/31 01:06:58;;;;;;;13.38;9.30;;;11.60;99.90;;;;;;5046133;28;20031;-50
2021/10/31 01:09:41;;;;;;;15.30;10.48;;;11.60;99.90;;;;;;5041044;28;20036;-51
2021/10/31 01:12:15;;;;;;;10.93;9.75;;;11.60;99.90;;;;;;5044544;28;20033;-52
2021/10/31 01:15:08;;;;;;;13.85;9.55;;;11.50;99.90;;;;;;5030287;28;20029;-51
2021/10/31 01:17:56;;;;;;;12.57;10.18;;;11.50;99.90;;;;;;5040518;23;20189;-48
2021/10/31 01:20:40;;;;;;;12.63;9.45;;;11.40;99.90;;;;;;4985183;28;20501;-47
2021/10/31 01:23:35;;;;;;;12.15;9.60;;;11.40;99.90;;;;;;4985894;28;20045;-49
2021/10/31 01:26:14;;;;;;;11.18;9.05;;;11.30;99.90;;;;;;4986032;28;20041;-51
2021/10/31 01:29:16;;;;;;;16.65;10.18;;;11.30;99.90;;;;;;4985691;28;20094;-50
2021/10/31 01:32:27;;;;;;;13.60;10.18;;;11.30;99.90;;;;;;4985128;28;20029;-48
2021/10/31 01:35:13;;;;;;;14.73;10.38;;;11.30;99.90;;;;;;4983797;28;20125;-49
2021/10/31 01:37:57;;;;;;;;;;;11.30;99.90;;;;;;4973620;28;20094;-49
2021/10/31 01:40:40;;;;;;;12.25;9.65;;;11.30;99.90;;;;;;4982503;28;19937;-49
2021/10/31 01:43:32;;;;;;;11.55;9.70;;;11.30;99.90;;;;;;4980217;28;20062;-48
2021/10/31 01:46:04;;;;;;;13.45;10.18;;;11.30;99.90;;;;;;4985895;28;20490;-50
2021/10/31 01:48:48;;;;;;;13.70;10.38;;;11.30;99.90;;;;;;4985582;28;20035;-47
2021/10/31 01:51:20;;;;;;;16.13;9.95;;;11.30;99.90;;;;;;4985289;28;20405;-48
2021/10/31 01:53:59;;;;;;;13.07;9.95;;;11.30;99.90;;;;;;4982087;28;20052;-49
2021/10/31 01:56:26;;;;;;;13.45;10.13;;;11.30;99.90;;;;;;4985138;28;20039;-51
2021/10/31 01:59:06;;;;;;;14.02;10.25;;;11.30;99.90;;;;;;4981905;28;20030;-50
2021/10/31 02:01:34;;;;;;;12.88;10.38;;;11.20;99.90;;;;;;4983539;28;20158;-50
2021/10/31 02:04:05;;;;;;;15.13;11.32;;;11.30;99.90;;;;;;4983249;28;20410;-49
2021/10/31 02:06:31;;;;;;;12.32;10.20;;;11.30;99.90;;;;;;4985856;28;20035;-50
2021/10/31 02:08:58;;;;;;;12.68;9.98;;;11.20;99.90;;;;;;4984933;28;20038;-48
2021/10/31 02:11:24;;;;;;;14.60;11.00;;;11.20;99.90;;;;;;4978409;28;20543;-49
2021/10/31 02:13:53;;;;;;;14.38;10.60;;;11.20;99.90;;;;;;4987087;28;20031;-49
2021/10/31 02:16:21;;;;;;;13.02;10.70;;;11.20;99.90;;;;;;4988608;28;20039;-48
2021/10/31 02:18:49;;;;;;;15.95;11.25;;;11.20;99.90;;;;;;4988615;28;20034;-48
2021/10/31 02:21:18;;;;;;;13.40;10.57;;;11.20;99.90;;;;;;4987453;28;20038;-51
2021/10/31 02:23:45;;;;;;;13.98;11.02;;;11.10;99.90;;;;;;4988626;28;20895;-48
2021/10/31 02:26:13;;;;;;;14.07;11.57;;;11.10;99.90;;;;;;4988648;28;20414;-52
2021/10/31 02:28:39;;;;;;;13.70;11.35;;;11.10;99.90;;;;;;4988094;28;20592;-48
2021/10/31 02:31:04;;;;;;;16.20;12.05;;;11.10;99.90;;;;;;4988407;28;20113;-49
2021/10/31 02:33:30;;;;;;;15.38;11.25;;;11.10;99.90;;;;;;4988326;28;20245;-53
2021/10/31 02:35:58;;;;;;;14.13;11.05;;;11.10;99.90;;;;;;4987651;28;20027;-51
2021/10/31 02:38:24;;;;;;;14.70;11.10;;;11.10;99.90;;;;;;4987571;28;20491;-48
2021/10/31 02:40:50;;;;;;;13.40;11.20;;;11.10;99.90;;;;;;4992478;28;20061;-48
2021/10/31 02:43:15;;;;;;;13.63;11.40;;;11.10;99.90;;;;;;4988628;28;20532;-49
2021/10/31 02:45:41;;;;;;;15.23;11.55;;;11.10;99.90;;;;;;4988882;28;20034;-48
2021/10/31 02:48:15;;;;;;;16.10;12.70;;;11.20;99.90;;;;;;4988575;28;20562;-46
2021/10/31 02:50:43;;;;;;;14.05;11.80;;;11.20;99.90;;;;;;4986645;28;20035;-46
2021/10/31 02:53:17;;;;;;;14.05;11.52;;;11.20;99.90;;;;;;4988458;28;20548;-45
2021/10/31 02:56:04;;;;;;;17.10;12.48;;;11.20;99.90;;;;;;4988384;28;20031;-53
2021/10/31 02:58:35;;;;;;;16.42;11.52;;;11.20;99.90;;;;;;4988524;28;20053;-50
2021/10/31 03:01:04;;;;;;;16.30;12.35;;;11.20;99.90;;;;;;4987079;28;20023;-49
2021/10/31 03:03:32;;;;;;;14.88;11.70;;;11.30;99.90;;;;;;4988317;28;20038;-49
2021/10/31 03:05:59;;;;;;;16.67;12.40;;;11.30;99.90;;;;;;4988352;28;20031;-47
2021/10/31 03:08:26;;;;;;;17.23;12.77;;;11.20;99.90;;;;;;4988397;28;20034;-51
2021/10/31 03:10:58;;;;;;;16.70;12.57;;;11.30;99.90;;;;;;4988053;28;20123;-48
2021/10/31 03:13:25;;;;;;;14.90;11.70;;;11.30;99.90;;;;;;4988001;28;20034;-48
2021/10/31 03:15:51;;;;;;;16.58;12.68;;;11.30;99.90;;;;;;4988498;28;20015;-49
2021/10/31 03:18:16;;;;;;;16.88;12.43;;;11.30;99.90;;;;;;4987975;28;20041;-49
2021/10/31 03:20:42;;;;;;;17.98;13.20;;;11.30;99.90;;;;;;4987797;28;20162;-49
2021/10/31 03:23:08;;;;;;;17.33;13.50;;;11.30;99.90;;;;;;4987943;28;20561;-47
2021/10/31 03:25:33;;;;;;;15.15;12.68;;;11.40;99.90;;;;;;4987363;28;20022;-48
2021/10/31 03:27:59;;;;;;;16.05;13.55;;;11.40;99.90;;;;;;4987936;28;20026;-49
2021/10/31 03:30:25;;;;;;;18.33;14.45;;;11.40;99.90;;;;;;4987361;28;20443;-50
2021/10/31 03:32:50;;;;;;;16.63;12.23;;;11.30;99.90;;;;;;4988071;28;20030;-48
2021/10/31 03:35:16;;;;;;;16.00;12.80;;;11.40;99.90;;;;;;4987849;28;20623;-50
2021/10/31 03:37:43;;;;;;;15.77;13.32;;;11.40;99.90;;;;;;4987852;28;20034;-53
2021/10/31 03:40:09;;;;;;;16.45;13.70;;;11.40;99.90;;;;;;4993785;28;20054;-48
2021/10/31 03:42:35;;;;;;;15.05;12.85;;;11.40;99.90;;;;;;4987748;28;20101;-47
2021/10/31 03:45:01;;;;;;;18.65;14.07;;;11.40;99.90;;;;;;4987947;28;20038;-48
2021/10/31 03:47:28;;;;;;;14.95;12.43;;;11.40;99.90;;;;;;4987975;28;20401;-51
2021/10/31 03:49:53;;;;;;;16.08;11.65;;;11.40;99.90;;;;;;4986090;28;20026;-48
2021/10/31 03:52:19;;;;;;;16.40;12.55;;;11.40;99.90;;;;;;4987600;28;20030;-49
2021/10/31 03:54:44;;;;;;;14.60;12.80;;;11.40;99.90;;;;;;4986732;28;20984;-48
2021/10/31 03:57:10;;;;;;;19.42;14.18;;;11.30;99.90;;;;;;4987525;28;20042;-50
2021/10/31 03:59:36;;;;;;;17.50;13.50;;;11.40;99.90;;;;;;4987097;28;20420;-47
2021/10/31 04:02:03;;;;;;;16.80;14.48;;;11.40;99.90;;;;;;4987287;28;20026;-50
2021/10/31 04:04:29;;;;;;;17.92;14.20;;;11.40;99.90;;;;;;4987376;28;20018;-49
2021/10/31 04:06:55;;;;;;;17.42;15.00;;;11.40;99.90;;;;;;4987499;28;20036;-51
2021/10/31 04:09:20;;;;;;;18.52;15.30;;;11.40;99.90;;;;;;4986414;28;20046;-47
2021/10/31 04:11:46;;;;;;;19.02;16.35;;;11.40;99.90;;;;;;4987524;28;20075;-49
2021/10/31 04:14:11;;;;;;;20.52;15.95;;;11.40;99.90;;;;;;4987549;28;20098;-49
2021/10/31 04:16:37;;;;;;;20.30;14.43;;;11.40;99.90;;;;;;4987357;28;20037;-50
2021/10/31 04:19:03;;;;;;;19.92;14.43;;;11.30;99.90;;;;;;4986618;28;20391;-51
2021/10/31 04:21:28;;;;;;;19.90;14.07;;;11.30;99.90;;;;;;4986675;28;20034;-54
2021/10/31 04:23:54;;;;;;;20.58;15.48;;;11.30;99.90;;;;;;4987458;28;20456;-48
2021/10/31 04:26:19;;;;;;;17.17;14.43;;;11.30;99.90;;;;;;4987143;28;20117;-54
2021/10/31 04:28:45;;;;;;;20.45;14.80;;;11.30;99.90;;;;;;4986696;28;20501;-50
2021/10/31 04:31:11;;;;;;;19.10;14.60;;;11.30;99.90;;;;;;4985312;28;20059;-49
2021/10/31 04:33:36;;;;;;;22.23;15.32;;;11.30;99.90;;;;;;4986495;28;20022;-46
2021/10/31 04:36:03;;;;;;;18.92;15.35;;;11.30;99.90;;;;;;4985357;28;20113;-48
2021/10/31 04:38:31;;;;;;;20.83;14.80;;;11.30;99.90;;;;;;4985954;28;20501;-49
2021/10/31 04:40:57;;;;;;;20.10;15.35;;;11.30;99.90;;;;;;4993828;28;20027;-50
2021/10/31 04:43:24;;;;;;;20.75;14.70;;;11.30;99.90;;;;;;4987203;28;20440;-52
2021/10/31 04:45:50;;;;;;;19.40;15.73;;;11.30;99.90;;;;;;4985437;28;20053;-48
2021/10/31 04:48:15;;;;;;;19.38;14.32;;;11.30;99.90;;;;;;4986165;28;20041;-49
2021/10/31 04:50:41;;;;;;;20.50;16.05;;;11.30;99.90;;;;;;4986393;28;20031;-49
2021/10/31 04:53:08;;;;;;;19.92;16.67;;;11.30;99.90;;;;;;4986976;28;20036;-46
2021/10/31 04:55:36;;;;;;;18.63;15.68;;;11.30;99.90;;;;;;4986733;28;20022;-48
2021/10/31 04:58:02;;;;;;;20.95;17.17;;;11.30;99.90;;;;;;4986488;28;20026;-50
2021/10/31 05:00:27;;;;;;;28.75;18.45;;;11.30;99.90;;;;;;4983628;28;20026;-49
2021/10/31 05:02:53;;;;;;;20.52;15.85;;;11.30;99.90;;;;;;4986516;28;20031;-49
2021/10/31 05:05:19;;;;;;;25.02;17.42;;;11.30;99.90;;;;;;4986400;28;20086;-48
2021/10/31 05:07:48;;;;;;;23.30;18.40;;;11.40;99.90;;;;;;4986712;28;20044;-49
2021/10/31 05:10:17;;;;;;;23.33;17.55;;;11.40;99.90;;;;;;4984881;28;20079;-49
2021/10/31 05:12:43;;;;;;;24.58;18.33;;;11.40;99.90;;;;;;4986814;28;20094;-50
2021/10/31 05:15:09;;;;;;;26.23;20.30;;;11.40;99.90;;;;;;4986400;28;20018;-49
2021/10/31 05:17:35;;;;;;;27.63;20.42;;;11.40;99.90;;;;;;4986321;28;20107;-49
2021/10/31 05:20:01;;;;;;;23.67;19.60;;;11.40;99.90;;;;;;4984983;28;20569;-49
2021/10/31 05:22:27;;;;;;;26.20;20.30;;;11.40;99.90;;;;;;4986724;28;20054;-48
2021/10/31 05:24:53;;;;;;;24.35;19.10;;;11.40;99.90;;;;;;4985565;28;20054;-53
2021/10/31 05:27:18;;;;;;;29.50;21.92;;;11.40;99.90;;;;;;4986754;28;20113;-50
2021/10/31 05:29:44;;;;;;;26.63;20.42;;;11.40;99.90;;;;;;4984623;28;20037;-48
2021/10/31 05:32:10;;;;;;;26.83;21.08;;;11.40;99.90;;;;;;4984749;28;20035;-50
2021/10/31 05:34:35;;;;;;;25.52;18.73;;;11.40;99.90;;;;;;4984967;28;20718;-49
2021/10/31 05:37:02;;;;;;;26.60;19.55;;;11.40;99.90;;;;;;4986734;28;20027;-50
2021/10/31 05:39:28;;;;;;;27.45;19.13;;;11.40;99.90;;;;;;4986644;28;20525;-50
2021/10/31 05:41:53;;;;;;;25.45;19.75;;;11.40;99.90;;;;;;4985532;28;20030;-46
2021/10/31 05:44:19;;;;;;;26.42;19.17;;;11.40;99.90;;;;;;4986482;28;20502;-46
2021/10/31 05:46:44;;;;;;;22.60;17.33;;;11.40;99.90;;;;;;4985486;28;20026;-48
2021/10/31 05:49:10;;;;;;;23.20;17.30;;;11.40;99.90;;;;;;4985474;28;20505;-48
2021/10/31 05:51:36;;;;;;;20.48;16.83;;;11.40;99.90;;;;;;4986236;28;20038;-50
2021/10/31 05:54:02;;;;;;;23.38;17.88;;;11.40;99.90;;;;;;4985920;28;20029;-49
2021/10/31 05:56:28;;;;;;;22.73;15.80;;;11.40;99.90;;;;;;4981632;28;20027;-50
2021/10/31 05:58:54;;;;;;;19.92;15.18;;;11.30;99.90;;;;;;4983797;28;20037;-52
2021/10/31 06:01:20;;;;;;;25.90;15.70;;;11.30;99.90;;;;;;4984353;28;20023;-50
2021/10/31 06:03:45;;;;;;;21.48;16.40;;;11.30;99.90;;;;;;4986322;28;20100;-49
2021/10/31 06:06:11;;;;;;;18.15;14.85;;;11.20;99.90;;;;;;4986471;28;20541;-51
2021/10/31 06:08:36;;;;;;;21.02;16.52;;;11.20;99.90;;;;;;4984697;28;20034;-53
2021/10/31 06:11:02;;;;;;;21.27;15.52;;;11.20;99.90;;;;;;4985631;28;20041;-53
2021/10/31 06:13:28;;;;;;;19.55;15.48;;;11.10;99.90;;;;;;4973805;28;20034;-48
2021/10/31 06:15:54;;;;;;;20.40;15.00;;;11.10;99.90;;;;;;4985642;28;20168;-50
2021/10/31 06:18:19;;;;;;;18.63;14.63;;;11.10;99.90;;;;;;4985305;28;20042;-49
2021/10/31 06:20:46;;;;;;;21.10;16.42;;;11.10;99.90;;;;;;4985324;28;20121;-48
2021/10/31 06:23:14;;;;;;;21.15;16.10;;;11.10;99.90;;;;;;4985268;28;20721;-49
2021/10/31 06:25:40;;;;;;;19.83;16.90;;;11.10;99.90;;;;;;4984930;28;20049;-51
2021/10/31 06:28:07;;;;;;;20.77;15.73;;;11.10;99.90;;;;;;4985408;28;20022;-50
2021/10/31 06:30:32;;;;;;;21.65;15.90;;;11.00;99.90;;;;;;4985252;28;20030;-52
2021/10/31 06:32:58;;;;;;;21.73;15.68;;;11.00;99.90;;;;;;4985607;28;20030;-51
2021/10/31 06:35:23;;;;;;;18.65;15.65;;;11.00;99.90;;;;;;4985497;28;20088;-50
2021/10/31 06:37:49;;;;;;;20.77;15.00;;;11.00;99.90;;;;;;4984512;28;20034;-48
2021/10/31 06:40:16;;;;;;;17.85;15.27;;;11.00;99.90;;;;;;4991296;28;20117;-49
2021/10/31 06:42:42;;;;;;;18.85;14.45;;;11.00;99.90;;;;;;4985807;28;20038;-50
2021/10/31 06:45:08;;;;;;;18.15;15.05;;;10.90;99.90;;;;;;4985151;28;20402;-49
2021/10/31 06:47:34;;;;;;;17.73;15.13;;;11.00;99.90;;;;;;4985089;28;20708;-50
2021/10/31 06:50:00;;;;;;;19.60;15.55;;;11.00;99.90;;;;;;4984883;28;20035;-50
2021/10/31 06:52:26;;;;;;;20.30;15.60;;;11.00;99.90;;;;;;4985142;28;20019;-49
2021/10/31 06:54:52;;;;;;;20.35;16.02;;;11.00;99.90;;;;;;4985358;28;20033;-53
2021/10/31 06:57:18;;;;;;;18.95;14.27;;;11.00;99.90;;;;;;4984928;28;20026;-50
2021/10/31 06:59:44;;;;;;;18.20;14.40;;;11.00;99.90;;;;;;4984070;28;20482;-50
2021/10/31 07:02:09;;;;;;;17.00;13.98;;;11.00;99.90;;;;;;4984734;28;20041;-53
2021/10/31 07:04:35;;;;;;;19.45;14.25;;;11.00;99.90;;;;;;4987439;28;20045;-48
2021/10/31 07:07:01;;;;;;;15.85;13.38;;;11.00;99.90;;;;;;4987311;28;20065;-48
2021/10/31 07:09:27;;;;;;;17.65;13.38;;;11.00;99.90;;;;;;4987855;28;20088;-49
2021/10/31 07:11:52;;;;;;;15.90;13.93;;;10.90;99.90;;;;;;4988660;28;20026;-51
2021/10/31 07:14:18;;;;;;;21.00;15.65;;;10.90;99.90;;;;;;4987747;28;20611;-52
2021/10/31 07:16:44;;;;;;;17.23;14.35;;;10.90;99.90;;;;;;4988765;28;20037;-48
2021/10/31 07:19:10;;;;;;;17.08;14.52;;;10.90;99.90;;;;;;5045877;23;20084;-51
2021/10/31 07:21:37;;;;;;;20.33;15.82;;;10.90;99.90;;;;;;5070839;28;20060;-54
2021/10/31 07:24:04;;;;;;;19.35;14.52;;;10.90;99.90;;;;;;5070901;28;20397;-51
2021/10/31 07:26:30;;;;;;;18.27;14.27;;;11.00;99.90;;;;;;5070479;28;20480;-52
2021/10/31 07:28:55;;;;;;;16.30;14.07;;;11.00;99.90;;;;;;5070935;28;20045;-51
2021/10/31 07:31:23;;;;;;;19.08;15.45;;;11.00;99.90;;;;;;5070599;28;20021;-55
2021/10/31 07:33:49;;;;;;;18.10;14.75;;;11.00;99.90;;;;;;5070711;28;20051;-50
2021/10/31 07:36:14;;;;;;;18.48;14.38;;;11.00;99.90;;;;;;5070906;28;20441;-51
2021/10/31 07:38:42;;;;;;;15.10;12.10;;;11.00;99.90;;;;;;5070260;28;20039;-52
2021/10/31 07:41:07;;;;;;;17.00;13.82;;;11.00;99.90;;;;;;5050899;28;20105;-53
2021/10/31 07:43:33;;;;;;;17.38;14.50;;;11.00;99.90;;;;;;5066886;28;20488;-55
2021/10/31 07:45:59;;;;;;;15.65;12.30;;;11.00;99.90;;;;;;5070362;28;20036;-52
2021/10/31 07:48:25;;;;;;;17.35;13.88;;;11.00;99.90;;;;;;5070281;28;20024;-53
2021/10/31 07:50:51;;;;;;;15.43;13.52;;;11.00;99.90;;;;;;5069979;28;20396;-52
2021/10/31 07:53:17;;;;;;;16.02;13.00;;;11.00;99.90;;;;;;5070561;28;20476;-53
2021/10/31 07:55:48;;;;;;;19.17;13.32;;;11.00;99.90;;;;;;5070046;28;20028;-52
2021/10/31 07:58:16;;;;;;;21.10;14.57;;;11.00;99.90;;;;;;5064866;28;20166;-52
2021/10/31 08:00:42;;;;;;;17.63;14.32;;;11.00;99.90;;;;;;5064112;28;20021;-50
2021/10/31 08:03:07;;;;;;;14.63;12.20;;;11.00;99.90;;;;;;5062004;28;20127;-50
2021/10/31 08:05:33;;;;;;;16.67;13.95;;;11.00;99.90;;;;;;5069176;28;20138;-52
2021/10/31 08:07:59;;;;;;;15.77;14.15;;;11.00;99.90;;;;;;5069184;28;20260;-49
2021/10/31 08:10:25;;;;;;;21.95;14.93;;;11.00;99.90;;;;;;5069601;28;20032;-53
2021/10/31 08:12:51;;;;;;;19.95;16.02;;;11.10;99.90;;;;;;5070367;28;20443;-51
2021/10/31 08:15:16;;;;;;;19.02;14.63;;;11.10;99.90;;;;;;5070062;28;20020;-53
2021/10/31 08:17:42;;;;;;;17.40;14.07;;;11.20;99.90;;;;;;5069928;28;20029;-50
2021/10/31 08:20:08;;;;;;;17.20;14.98;;;11.20;99.90;;;;;;5069626;28;20105;-51
2021/10/31 08:22:34;;;;;;;18.63;14.93;;;11.30;99.90;;;;;;5070073;28;20044;-53
2021/10/31 08:25:00;;;;;;;18.77;14.50;;;11.40;99.90;;;;;;5069620;28;20107;-53
2021/10/31 08:27:26;;;;;;;16.70;14.65;;;11.50;99.90;;;;;;5069288;28;20035;-52
2021/10/31 08:29:52;;;;;;;18.75;14.57;;;11.70;99.90;;;;;;5068978;28;20099;-52
2021/10/31 08:32:19;;;;;;;17.38;14.25;;;11.90;99.90;;;;;;5069386;28;20039;-54
2021/10/31 08:34:44;;;;;;;16.30;12.90;;;12.00;99.90;;;;;;5069339;28;20039;-52
2021/10/31 08:37:10;;;;;;;18.83;13.82;;;12.10;99.90;;;;;;5068178;28;20021;-52
2021/10/31 08:39:35;;;;;;;18.25;14.05;;;12.10;99.90;;;;;;5074171;28;20027;-50
2021/10/31 08:42:01;;;;;;;17.23;13.45;;;12.20;99.90;;;;;;5089170;28;20039;-51
2021/10/31 08:44:27;;;;;;;18.38;14.00;;;12.30;99.90;;;;;;5089102;28;20016;-51
2021/10/31 08:46:52;;;;;;;15.90;12.43;;;12.40;99.90;;;;;;5089451;28;20051;-52
2021/10/31 08:49:19;;;;;;;16.75;12.63;;;12.50;99.90;;;;;;5088871;28;20016;-51
2021/10/31 08:51:45;;;;;;;17.17;12.50;;;12.60;99.90;;;;;;5089276;28;20440;-52
2021/10/31 08:54:11;;;;;;;13.40;12.00;;;12.60;99.90;;;;;;5089080;28;20103;-53
2021/10/31 08:56:36;;;;;;;17.92;12.73;;;12.70;99.90;;;;;;5088895;28;20031;-52
2021/10/31 08:59:02;;;;;;;15.60;12.60;;;12.70;99.90;;;;;;5076163;28;20074;-52
2021/10/31 09:01:29;;;;;;;19.38;12.88;;;12.70;99.90;;;;;;5068793;28;20103;-52
2021/10/31 09:03:55;;;;;;;16.17;12.32;;;12.80;99.90;;;;;;5068454;28;20488;-52
2021/10/31 09:06:24;;;;;;;18.08;12.68;;;12.80;99.90;;;;;;5068214;28;20056;-51
2021/10/31 09:08:49;;;;;;;13.05;11.65;;;12.80;99.90;;;;;;5049026;28;20025;-53
2021/10/31 09:11:15;;;;;;;17.55;11.27;;;12.80;99.90;;;;;;5055777;28;20511;-51
2021/10/31 09:13:41;;;;;;;16.95;11.38;;;12.80;99.90;;;;;;5068038;28;20484;-52
2021/10/31 09:16:06;;;;;;;13.38;10.25;;;12.90;99.90;;;;;;5068003;28;20041;-51
2021/10/31 09:18:32;;;;;;;16.00;11.35;;;12.90;99.90;;;;;;5068313;28;20036;-55
2021/10/31 09:20:58;;;;;;;14.63;11.20;;;12.90;99.90;;;;;;5067638;28;20100;-51
2021/10/31 09:23:24;;;;;;;13.20;10.45;;;13.00;99.90;;;;;;5067901;28;20032;-54
2021/10/31 09:25:50;;;;;;;13.65;11.20;;;13.00;99.90;;;;;;5068129;28;20814;-52
2021/10/31 09:28:17;;;;;;;12.27;10.20;;;13.00;99.90;;;;;;5068058;28;20518;-54
2021/10/31 09:30:43;;;;;;;12.57;10.98;;;13.00;99.90;;;;;;5067740;28;20051;-51
2021/10/31 09:33:12;;;;;;;13.60;10.50;;;13.10;99.90;;;;;;5068166;28;20020;-50
2021/10/31 09:35:47;;;;;;;12.40;10.95;;;13.10;99.90;;;;;;5067974;28;20415;-54
2021/10/31 09:38:14;;;;;;;12.63;10.63;;;13.20;99.90;;;;;;5068364;28;20032;-52
2021/10/31 09:40:40;;;;;;;13.32;9.63;;;13.20;99.90;;;;;;5081868;28;20059;-51
2021/10/31 09:43:06;;;;;;;10.27;9.20;;;13.30;99.90;;;;;;5088085;28;20101;-52
2021/10/31 09:45:33;;;;;;;13.48;9.82;;;13.30;99.90;;;;;;5074161;28;20020;-55
2021/10/31 09:48:10;;;;;;;13.30;10.65;;;13.30;99.90;;;;;;5068178;28;20020;-51
2021/10/31 09:50:39;;;;;;;13.38;10.65;;;13.30;99.90;;;;;;5067048;28;20047;-49
2021/10/31 09:53:06;;;;;;;13.88;11.27;;;13.40;99.90;;;;;;5068440;28;20020;-56
2021/10/31 09:55:32;;;;;;;12.73;10.07;;;13.50;99.90;;;;;;5067583;28;20028;-52
2021/10/31 09:58:00;;;;;;;13.25;11.00;;;13.50;99.90;;;;;;5068435;28;20400;-51
2021/10/31 10:00:45;;;;;;;13.52;10.57;;;13.60;99.90;;;;;;5066955;28;20111;-53
2021/10/31 10:03:56;;;;;;;13.27;10.35;;;13.60;99.90;;;;;;5068266;28;20048;-53
2021/10/31 10:06:18;;;;;;;14.13;10.45;;;13.60;99.90;;;;;;5067293;28;20083;-53
2021/10/31 10:08:56;;;;;;;10.75;9.65;;;13.60;99.90;;;;;;5067916;28;20606;-51
2021/10/31 10:11:21;;;;;;;12.25;9.75;;;13.60;99.90;;;;;;5067649;28;20020;-53
2021/10/31 10:13:47;;;;;;;13.88;9.95;;;13.70;99.90;;;;;;5066942;28;20191;-53
2021/10/31 10:16:12;;;;;;;11.55;10.35;;;13.70;99.90;;;;;;5067647;28;20029;-52
2021/10/31 10:18:38;;;;;;;12.95;10.02;;;13.70;99.90;;;;;;5067733;28;20062;-52
2021/10/31 10:21:22;;;;;;;12.63;10.18;;;13.70;99.90;;;;;;5066975;28;20025;-52
2021/10/31 10:23:51;;;;;;;10.95;9.63;;;13.70;99.90;;;;;;5067860;28;20033;-50
2021/10/31 10:26:37;;;;;;;12.85;9.35;;;13.60;99.90;;;;;;5066661;28;20036;-53
2021/10/31 10:29:08;;;;;;;10.75;9.68;;;13.60;99.90;;;;;;5067567;28;20036;-51
2021/10/31 10:31:34;;;;;;;13.50;9.18;;;13.60;99.90;;;;;;5068274;28;20039;-52
2021/10/31 10:34:00;;;;;;;10.73;9.27;;;13.60;99.90;;;;;;5067979;28;20400;-52
2021/10/31 10:36:26;;;;;;;10.60;9.18;;;13.60;99.90;;;;;;5071332;28;20449;-52
2021/10/31 10:39:16;;;;;;;11.70;9.43;;;13.70;99.90;;;;;;5071037;28;20028;-53
2021/10/31 10:41:53;;;;;;;10.40;8.70;;;13.70;99.90;;;;;;5051516;28;20474;-51
2021/10/31 10:44:29;;;;;;;11.60;9.23;;;13.70;99.90;;;;;;5071037;28;20029;-52
2021/10/31 10:47:05;;;;;;;10.20;9.02;;;13.70;99.90;;;;;;5071378;28;20055;-52
2021/10/31 10:49:34;;;;;;;11.55;7.93;;;13.70;99.90;;;;;;5051605;28;20053;-52
2021/10/31 10:52:06;;;;;;;9.38;8.35;;;13.80;99.90;;;;;;5067610;28;20064;-52
2021/10/31 10:54:37;;;;;;;9.30;7.65;;;13.80;99.90;;;;;;5071806;28;20025;-51
2021/10/31 10:57:08;;;;;;;8.82;7.63;;;13.80;99.90;;;;;;5071095;28;20055;-53
2021/10/31 10:59:37;;;;;;;9.00;6.90;;;13.80;99.90;;;;;;5070984;28;20017;-53
2021/10/31 11:02:09;;;;;;;11.25;7.60;;;13.90;99.90;;;;;;5071555;28;20036;-51
2021/10/31 11:04:36;;;;;;;8.73;7.28;;;13.90;99.90;;;;;;5071323;28;20074;-52
2021/10/31 11:07:05;;;;;;;9.63;7.03;;;13.90;99.90;;;;;;5070737;28;20028;-54
2021/10/31 11:09:43;;;;;;;8.10;7.05;;;13.90;99.90;;;;;;5070406;28;20023;-53
2021/10/31 11:12:27;;;;;;;7.95;6.45;;;13.90;99.90;;;;;;5070985;28;20100;-52
2021/10/31 11:14:56;;;;;;;7.85;6.30;;;13.90;99.90;;;;;;5070956;28;20407;-55
2021/10/31 11:17:22;;;;;;;8.30;6.00;;;13.90;99.90;;;;;;5070363;28;20056;-55
2021/10/31 11:19:49;;;;;;;7.68;6.15;;;13.90;99.90;;;;;;5070193;28;20396;-53
2021/10/31 11:22:17;;;;;;;9.30;5.82;;;13.90;99.90;;;;;;5070295;28;20104;-54
2021/10/31 11:24:47;;;;;;;8.68;6.43;;;14.00;99.90;;;;;;5070921;28;20036;-53
2021/10/31 11:27:14;;;;;;;9.88;6.57;;;14.00;99.90;;;;;;5070821;28;20110;-52
2021/10/31 11:29:42;;;;;;;9.90;6.82;;;13.90;99.90;;;;;;5069384;28;20025;-52
2021/10/31 11:32:08;;;;;;;9.85;7.63;;;13.90;99.90;;;;;;5067867;28;20028;-55
2021/10/31 11:34:34;;;;;;;11.00;6.97;;;13.90;99.90;;;;;;5069936;28;20035;-51
2021/10/31 11:37:00;;;;;;;7.75;6.63;;;13.90;99.90;;;;;;5069947;28;20590;-51
2021/10/31 11:39:27;;;;;;;7.55;5.78;;;13.90;99.90;;;;;;5072007;28;20028;-54
2021/10/31 11:41:59;;;;;;;8.63;6.80;;;13.90;99.90;;;;;;5090977;28;20028;-56
2021/10/31 11:44:29;;;;;;;9.32;7.00;;;13.90;99.90;;;;;;5049177;28;20085;-51
2021/10/31 11:46:55;;;;;;;9.45;7.18;;;13.90;99.90;;;;;;5050311;28;20021;-54
2021/10/31 11:49:20;;;;;;;7.38;5.78;;;13.90;99.90;;;;;;5070341;28;20586;-52
2021/10/31 11:51:48;;;;;;;8.65;6.10;;;13.90;99.90;;;;;;5070694;28;20028;-54
2021/10/31 11:54:16;;;;;;;7.82;6.28;;;13.90;99.90;;;;;;5069528;28;20059;-53
2021/10/31 11:56:51;;;;;;;8.55;6.32;;;14.00;99.90;;;;;;5060156;28;20108;-52
2021/10/31 11:59:18;;;;;;;8.90;7.10;;;14.00;99.90;;;;;;5061105;28;20032;-51
2021/10/31 12:01:50;;;;;;;10.50;6.50;;;14.00;99.90;;;;;;5067600;28;20028;-52
2021/10/31 12:05:35;;;;;;;9.68;8.07;;;14.00;99.90;;;;;;5074589;28;20048;-54
2021/10/31 12:07:41;;;;;;;8.73;7.28;;;14.00;99.90;;;;;;5069434;28;20507;-53
2021/10/31 12:10:24;;;;;;;9.88;6.78;;;14.00;99.90;;;;;;5070529;28;20090;-53
2021/10/31 12:13:08;;;;;;;8.55;6.47;;;14.00;99.90;;;;;;5069883;28;20025;-51
2021/10/31 12:15:34;;;;;;;10.95;6.78;;;13.90;99.90;;;;;;5068911;28;20017;-51
2021/10/31 12:18:08;;;;;;;7.82;6.97;;;13.90;99.90;;;;;;5086846;28;20031;-51
2021/10/31 12:20:50;;;;;;;8.85;7.03;;;13.90;99.90;;;;;;5088921;28;20162;-53
2021/10/31 12:23:50;;;;;;;8.13;6.53;;;13.90;99.90;;;;;;5089849;28;20028;-53
2021/10/31 12:26:21;;;;;;;7.63;6.00;;;14.00;99.90;;;;;;5089757;28;20031;-54
2021/10/31 12:28:47;;;;;;;8.02;6.90;;;14.10;99.90;;;;;;5088241;28;20169;-50
2021/10/31 12:31:22;;;;;;;7.07;6.25;;;14.10;99.90;;;;;;5088304;28;20498;-52
2021/10/31 12:34:08;;;;;;;11.48;7.95;;;14.10;99.90;;;;;;5089917;28;20024;-54
2021/10/31 12:36:36;;;;;;;8.40;6.32;;;14.10;99.90;;;;;;5087526;28;20685;-53
2021/10/31 12:39:24;;;;;;;8.90;6.80;;;14.10;99.90;;;;;;5089437;28;20024;-53